createdAt,value
2019-03-20T00:00:17.407Z,45.20
2019-03-20T00:02:45.879Z,45.10
2019-03-20T00:05:14.186Z,45.10
2019-03-20T00:07:42.550Z,45.20
2019-03-20T00:10:11.797Z,45.20
2019-03-20T00:12:40.150Z,45.30
2019-03-20T00:15:11.373Z,45.30
2019-03-20T00:17:39.787Z,45.30
2019-03-20T00:20:13.885Z,45.40
2019-03-20T00:22:43.363Z,45.50
2019-03-20T00:25:12.126Z,45.60
2019-03-20T00:27:40.554Z,45.70
2019-03-20T00:30:15.253Z,45.70
2019-03-20T00:32:43.586Z,45.90
2019-03-20T00:35:11.971Z,45.90
2019-03-20T00:37:40.385Z,46.10
2019-03-20T00:40:11.552Z,46.10
2019-03-20T00:42:39.986Z,46.30
2019-03-20T00:45:15.982Z,46.40
2019-03-20T00:47:44.417Z,46.50
2019-03-20T00:50:16.448Z,46.50
2019-03-20T00:52:45.835Z,46.50
2019-03-20T00:55:15.530Z,46.70
2019-03-20T00:57:44.238Z,47.00
2019-03-20T01:00:20.684Z,47.40
2019-03-20T01:02:49.085Z,47.70
2019-03-20T01:05:36.985Z,48.00
2019-03-20T01:08:05.307Z,48.40
2019-03-20T01:10:33.661Z,48.50
2019-03-20T01:13:02.043Z,48.80
2019-03-20T01:15:30.431Z,48.90
2019-03-20T01:17:58.816Z,49.00
2019-03-20T01:20:27.263Z,49.10
2019-03-20T01:22:55.615Z,49.10
2019-03-20T01:25:23.988Z,49.20
2019-03-20T01:27:52.446Z,49.20
2019-03-20T01:30:34.897Z,49.30
2019-03-20T01:33:05.218Z,49.30
2019-03-20T01:35:33.591Z,49.20
2019-03-20T01:38:01.963Z,49.30
2019-03-20T01:40:30.425Z,49.30
2019-03-20T01:42:58.781Z,49.30
2019-03-20T01:45:27.161Z,49.40
2019-03-20T01:47:55.578Z,49.40
2019-03-20T01:50:24.000Z,49.50
2019-03-20T01:52:52.348Z,49.60
2019-03-20T01:55:20.641Z,49.80
2019-03-20T01:57:49.006Z,49.80
2019-03-20T02:00:17.534Z,49.90
2019-03-20T02:02:45.925Z,50.10
2019-03-20T02:05:14.546Z,50.20
2019-03-20T02:07:42.951Z,50.50
2019-03-20T02:10:15.705Z,50.70
2019-03-20T02:12:44.165Z,51.50
2019-03-20T02:15:17.293Z,51.00
2019-03-20T02:17:45.601Z,51.30
2019-03-20T02:20:16.029Z,51.30
2019-03-20T02:22:44.390Z,51.20
2019-03-20T02:25:13.481Z,51.00
2019-03-20T02:27:41.878Z,50.80
2019-03-20T02:30:18.236Z,50.60
2019-03-20T02:32:46.601Z,50.70
2019-03-20T02:35:14.983Z,50.60
2019-03-20T02:37:43.457Z,50.40
2019-03-20T02:40:13.989Z,50.50
2019-03-20T02:42:42.490Z,50.40
2019-03-20T02:45:13.313Z,50.50
2019-03-20T02:47:41.719Z,50.30
2019-03-20T02:50:10.926Z,50.00
2019-03-20T02:52:39.376Z,49.70
2019-03-20T02:55:10.987Z,49.40
2019-03-20T02:57:39.396Z,49.10
2019-03-20T03:00:11.228Z,49.00
2019-03-20T03:02:39.574Z,49.10
2019-03-20T03:05:08.859Z,49.30
2019-03-20T03:07:37.365Z,49.40
2019-03-20T03:10:08.820Z,49.60
2019-03-20T03:12:37.152Z,50.20
2019-03-20T03:15:07.319Z,50.40
2019-03-20T03:17:35.707Z,50.50
2019-03-20T03:20:06.688Z,50.60
2019-03-20T03:22:35.050Z,50.80
2019-03-20T03:25:04.413Z,50.80
2019-03-20T03:27:32.712Z,50.70
2019-03-20T03:30:01.127Z,50.60
2019-03-20T03:32:29.565Z,50.60
2019-03-20T03:34:57.918Z,50.60
2019-03-20T03:37:26.310Z,50.50
2019-03-20T03:39:54.766Z,50.70
2019-03-20T03:42:23.125Z,50.80
2019-03-20T03:44:51.496Z,50.80
2019-03-20T03:47:20.024Z,50.70
2019-03-20T03:49:48.371Z,50.80
2019-03-20T03:52:16.774Z,51.00
2019-03-20T03:54:45.174Z,51.20
2019-03-20T03:57:13.587Z,51.30
2019-03-20T03:59:41.946Z,51.40
2019-03-20T04:02:10.362Z,51.60
2019-03-20T04:04:38.729Z,51.60
2019-03-20T04:07:07.105Z,51.90
2019-03-20T04:09:35.586Z,52.00
2019-03-20T04:12:03.962Z,52.00
2019-03-20T04:14:32.312Z,52.00
2019-03-20T04:17:00.749Z,52.10
2019-03-20T04:19:29.132Z,52.10
2019-03-20T04:21:57.583Z,52.20
2019-03-20T04:24:25.934Z,52.20
2019-03-20T04:26:54.326Z,52.40
2019-03-20T04:29:22.761Z,52.60
2019-03-20T04:31:51.134Z,52.80
2019-03-20T04:34:19.563Z,53.10
2019-03-20T04:36:48.353Z,53.20
2019-03-20T04:39:16.753Z,53.60
2019-03-20T04:41:45.151Z,53.80
2019-03-20T04:44:13.674Z,54.00
2019-03-20T04:46:41.968Z,54.10
2019-03-20T04:49:10.457Z,54.40
2019-03-20T04:51:38.870Z,54.60
2019-03-20T04:54:07.208Z,54.70
2019-03-20T04:56:35.541Z,54.90
2019-03-20T04:59:03.930Z,55.00
2019-03-20T05:01:32.404Z,55.10
2019-03-20T05:04:00.780Z,55.20
2019-03-20T05:06:29.119Z,55.30
2019-03-20T05:08:58.007Z,55.20
2019-03-20T05:11:26.412Z,55.40
2019-03-20T05:13:54.813Z,55.50
2019-03-20T05:16:23.234Z,55.40
2019-03-20T05:18:51.632Z,55.60
2019-03-20T05:21:19.976Z,55.40
2019-03-20T05:23:48.389Z,55.50
2019-03-20T05:26:16.741Z,55.70
2019-03-20T05:28:45.025Z,55.50
2019-03-20T05:31:13.426Z,55.40
2019-03-20T05:33:41.805Z,55.40
2019-03-20T05:36:10.161Z,55.30
2019-03-20T05:38:38.545Z,55.40
2019-03-20T05:41:06.980Z,55.20
2019-03-20T05:43:35.362Z,55.20
2019-03-20T05:46:03.813Z,55.40
2019-03-20T05:48:32.111Z,55.50
2019-03-20T05:51:00.645Z,55.50
2019-03-20T05:53:29.102Z,55.30
2019-03-20T05:55:57.460Z,55.20
2019-03-20T05:58:25.847Z,55.20
2019-03-20T06:00:54.314Z,55.10
2019-03-20T06:03:22.661Z,55.20
2019-03-20T06:05:51.120Z,55.30
2019-03-20T06:08:19.545Z,55.30
2019-03-20T06:10:47.969Z,55.40
2019-03-20T06:13:16.299Z,55.20
2019-03-20T06:15:44.714Z,55.20
2019-03-20T06:18:13.071Z,55.20
2019-03-20T06:20:41.518Z,55.30
2019-03-20T06:23:11.228Z,55.10
2019-03-20T06:25:39.822Z,55.10
2019-03-20T06:28:08.287Z,55.20
2019-03-20T06:30:36.642Z,55.20
2019-03-20T06:33:04.948Z,54.80
2019-03-20T06:35:33.377Z,54.70
2019-03-20T06:38:01.802Z,54.70
2019-03-20T06:40:30.127Z,55.00
2019-03-20T06:42:58.790Z,55.20
2019-03-20T06:45:27.163Z,55.60
2019-03-20T06:47:55.468Z,55.70
2019-03-20T06:50:24.169Z,55.90
2019-03-20T06:52:52.493Z,56.00
2019-03-20T06:55:20.834Z,56.10
2019-03-20T06:57:49.246Z,56.20
2019-03-20T07:00:36.980Z,56.40
2019-03-20T07:03:26.771Z,56.40
2019-03-20T07:06:07.458Z,55.80
2019-03-20T07:08:42.450Z,54.40
2019-03-20T07:11:11.575Z,51.40
2019-03-20T07:13:39.970Z,49.20
2019-03-20T07:16:08.365Z,48.00
2019-03-20T07:18:36.754Z,46.70
2019-03-20T07:21:05.237Z,45.90
2019-03-20T07:23:33.621Z,45.40
2019-03-20T07:26:02.105Z,45.10
2019-03-20T07:28:30.606Z,45.10
2019-03-20T07:30:59.012Z,44.80
2019-03-20T07:33:27.427Z,44.50
2019-03-20T07:35:55.977Z,44.50
2019-03-20T07:38:24.524Z,44.30
2019-03-20T07:40:52.906Z,44.20
2019-03-20T07:43:21.265Z,44.20
2019-03-20T07:45:49.624Z,44.10
2019-03-20T07:48:22.517Z,44.30
2019-03-20T07:50:48.033Z,43.80
2019-03-20T07:53:35.901Z,43.70
2019-03-20T07:56:04.299Z,43.80
2019-03-20T07:58:32.673Z,43.70
2019-03-20T08:01:01.109Z,43.30
2019-03-20T08:03:29.498Z,43.20
2019-03-20T08:05:57.855Z,43.10
2019-03-20T08:08:26.265Z,43.10
2019-03-20T08:10:54.841Z,43.40
2019-03-20T08:13:23.183Z,43.20
2019-03-20T08:15:51.665Z,43.40
2019-03-20T08:18:20.055Z,43.50
2019-03-20T08:20:48.451Z,43.40
2019-03-20T08:23:17.021Z,43.20
2019-03-20T08:25:45.366Z,43.20
2019-03-20T08:28:13.711Z,43.10
2019-03-20T08:30:42.210Z,43.00
2019-03-20T08:33:10.570Z,43.20
2019-03-20T08:35:38.975Z,43.60
2019-03-20T08:38:17.442Z,44.40
2019-03-20T08:40:37.433Z,43.70
2019-03-20T08:43:05.791Z,43.60
2019-03-20T08:45:34.255Z,44.10
2019-03-20T08:48:02.636Z,43.70
2019-03-20T08:50:31.040Z,43.80
2019-03-20T08:52:59.436Z,43.80
2019-03-20T08:55:27.761Z,43.90
2019-03-20T08:57:56.118Z,44.00
2019-03-20T09:00:25.276Z,43.80
2019-03-20T09:02:53.653Z,43.80
2019-03-20T09:05:22.022Z,43.90
2019-03-20T09:07:50.430Z,43.90
2019-03-20T09:10:20.420Z,43.70
2019-03-20T09:12:48.766Z,43.50
2019-03-20T09:15:18.324Z,43.40
2019-03-20T09:17:46.626Z,43.40
2019-03-20T09:20:21.182Z,43.20
2019-03-20T09:22:49.637Z,42.90
2019-03-20T09:25:19.989Z,42.70
2019-03-20T09:27:48.320Z,42.60
2019-03-20T09:30:21.182Z,42.60
2019-03-20T09:32:49.501Z,42.60
2019-03-20T09:35:17.973Z,42.60
2019-03-20T09:37:51.713Z,42.70
2019-03-20T09:40:23.814Z,42.40
2019-03-20T09:42:53.578Z,42.50
2019-03-20T09:45:22.613Z,42.50
2019-03-20T09:47:51.024Z,42.70
2019-03-20T09:50:26.769Z,41.70
2019-03-20T09:52:55.131Z,41.60
2019-03-20T09:55:23.518Z,41.40
2019-03-20T09:57:51.949Z,41.00
2019-03-20T10:00:24.800Z,41.10
2019-03-20T10:02:53.134Z,41.30
2019-03-20T10:05:21.620Z,41.40
2019-03-20T10:07:49.968Z,41.30
2019-03-20T10:10:23.631Z,41.20
2019-03-20T10:12:52.143Z,41.40
2019-03-20T10:15:25.783Z,41.20
2019-03-20T10:17:54.113Z,40.90
2019-03-20T10:20:22.869Z,40.70
2019-03-20T10:22:51.302Z,40.60
2019-03-20T10:25:19.713Z,39.50
2019-03-20T10:27:48.153Z,38.80
2019-03-20T10:30:18.486Z,39.00
2019-03-20T10:32:46.948Z,37.90
2019-03-20T10:35:15.366Z,36.20
2019-03-20T10:37:43.733Z,35.40
2019-03-20T10:40:22.819Z,35.70
2019-03-20T10:42:51.252Z,36.10
2019-03-20T10:45:20.028Z,35.70
2019-03-20T10:47:48.989Z,35.40
2019-03-20T10:50:24.923Z,35.20
2019-03-20T10:52:53.311Z,34.50
2019-03-20T10:55:21.764Z,34.40
2019-03-20T10:57:50.267Z,34.80
2019-03-20T11:00:22.154Z,34.90
2019-03-20T11:02:50.955Z,35.00
2019-03-20T11:05:19.477Z,34.70
2019-03-20T11:07:47.918Z,34.50
2019-03-20T11:10:24.980Z,34.60
2019-03-20T11:12:53.578Z,34.50
2019-03-20T11:15:22.668Z,34.10
2019-03-20T11:17:51.057Z,34.10
2019-03-20T11:20:21.660Z,34.40
2019-03-20T11:22:50.141Z,34.20
2019-03-20T11:25:28.651Z,34.40
2019-03-20T11:27:57.008Z,34.20
2019-03-20T11:30:26.243Z,33.80
2019-03-20T11:32:54.842Z,33.80
2019-03-20T11:35:23.375Z,34.00
2019-03-20T11:37:52.161Z,34.00
2019-03-20T11:40:38.465Z,33.70
2019-03-20T11:43:06.781Z,33.50
2019-03-20T11:45:35.310Z,33.80
2019-03-20T11:48:05.234Z,34.20
2019-03-20T11:50:44.164Z,34.50
2019-03-20T11:53:12.788Z,32.90
2019-03-20T11:55:41.173Z,31.90
2019-03-20T11:58:09.636Z,31.60
2019-03-20T12:00:38.002Z,31.10
2019-03-20T12:03:06.389Z,31.50
2019-03-20T12:05:34.809Z,32.60
2019-03-20T12:08:03.314Z,33.30
2019-03-20T12:10:32.562Z,33.20
2019-03-20T12:13:00.994Z,32.10
2019-03-20T12:15:29.361Z,30.60
2019-03-20T12:17:58.174Z,30.50
2019-03-20T12:20:26.585Z,30.00
2019-03-20T12:22:55.337Z,29.50
2019-03-20T12:25:26.680Z,29.20
2019-03-20T12:27:55.054Z,29.20
2019-03-20T12:30:33.401Z,29.10
2019-03-20T12:33:01.849Z,29.10
2019-03-20T12:35:44.348Z,29.00
2019-03-20T12:38:15.308Z,29.20
2019-03-20T12:40:42.797Z,29.20
2019-03-20T12:43:11.236Z,29.10
2019-03-20T12:45:41.123Z,29.20
2019-03-20T12:48:11.024Z,29.80
2019-03-20T12:50:39.456Z,29.10
2019-03-20T12:53:10.152Z,28.30
2019-03-20T12:55:38.677Z,27.80
2019-03-20T12:58:07.199Z,27.30
2019-03-20T13:00:35.914Z,26.70
2019-03-20T13:03:04.434Z,26.60
2019-03-20T13:05:32.845Z,26.40
2019-03-20T13:08:05.772Z,26.10
2019-03-20T13:10:31.296Z,25.70
2019-03-20T13:12:59.988Z,25.50
2019-03-20T13:15:28.918Z,24.90
2019-03-20T13:17:57.412Z,24.60
2019-03-20T13:20:26.523Z,24.30
2019-03-20T13:23:13.193Z,24.00
2019-03-20T13:25:41.885Z,23.60
2019-03-20T13:28:10.334Z,23.30
2019-03-20T13:30:44.789Z,23.20
2019-03-20T13:33:13.410Z,22.90
2019-03-20T13:35:41.700Z,22.50
2019-03-20T13:38:10.358Z,21.90
2019-03-20T13:40:38.729Z,21.80
2019-03-20T13:43:07.317Z,21.50
2019-03-20T13:45:35.909Z,21.30
2019-03-20T13:48:04.490Z,21.10
2019-03-20T13:50:33.270Z,20.90
2019-03-20T13:53:11.783Z,20.70
2019-03-20T13:55:42.044Z,20.40
2019-03-20T13:58:10.788Z,20.20
2019-03-20T14:00:39.125Z,20.00
2019-03-20T14:03:07.964Z,19.90
2019-03-20T14:05:36.541Z,19.60
2019-03-20T14:08:05.015Z,19.50
2019-03-20T14:10:33.386Z,19.40
2019-03-20T14:13:01.947Z,19.30
2019-03-20T14:15:30.451Z,19.30
2019-03-20T14:17:58.939Z,19.30
2019-03-20T14:20:30.817Z,19.20
2019-03-20T14:22:59.121Z,19.00
2019-03-20T14:25:27.601Z,18.80
2019-03-20T14:27:56.149Z,18.70
2019-03-20T14:30:28.853Z,19.10
2019-03-20T14:32:57.357Z,19.30
2019-03-20T14:35:25.964Z,19.60
2019-03-20T14:37:54.558Z,19.60
2019-03-20T14:40:35.285Z,19.10
2019-03-20T14:42:56.648Z,19.00
2019-03-20T14:45:25.223Z,19.20
2019-03-20T14:47:53.806Z,19.50
2019-03-20T14:50:26.673Z,19.30
2019-03-20T14:52:55.039Z,19.00
2019-03-20T14:55:23.433Z,18.70
2019-03-20T14:57:52.106Z,18.60
2019-03-20T15:00:30.360Z,18.60
2019-03-20T15:02:58.778Z,18.70
2019-03-20T15:05:27.118Z,18.60
2019-03-20T15:07:55.646Z,18.50
2019-03-20T15:10:27.886Z,18.80
2019-03-20T15:12:56.558Z,19.10
2019-03-20T15:15:31.205Z,19.00
2019-03-20T15:17:59.604Z,19.60
2019-03-20T15:20:28.101Z,18.80
2019-03-20T15:22:56.462Z,18.50
2019-03-20T15:25:24.935Z,18.20
2019-03-20T15:27:53.322Z,17.80
2019-03-20T15:30:23.066Z,18.00
2019-03-20T15:32:51.466Z,18.20
2019-03-20T15:35:19.848Z,18.30
2019-03-20T15:37:48.181Z,18.20
2019-03-20T15:40:18.779Z,18.00
2019-03-20T15:42:50.232Z,17.80
2019-03-20T15:45:19.339Z,17.60
2019-03-20T15:47:47.663Z,17.70
2019-03-20T15:50:21.306Z,17.80
2019-03-20T15:52:49.891Z,18.10
2019-03-20T15:55:24.333Z,18.10
2019-03-20T15:57:52.778Z,18.10
2019-03-20T16:00:22.488Z,18.20
2019-03-20T16:02:59.680Z,18.00
2019-03-20T16:05:28.127Z,17.90
2019-03-20T16:07:56.499Z,17.50
2019-03-20T16:10:24.930Z,18.00
2019-03-20T16:12:53.400Z,18.30
2019-03-20T16:15:22.905Z,18.30
2019-03-20T16:17:51.289Z,18.60
2019-03-20T16:20:20.068Z,18.50
2019-03-20T16:22:48.561Z,18.30
2019-03-20T16:25:21.429Z,18.30
2019-03-20T16:27:49.979Z,18.20
2019-03-20T16:30:21.166Z,18.20
2019-03-20T16:32:49.650Z,18.80
2019-03-20T16:35:18.163Z,19.40
2019-03-20T16:37:46.640Z,20.30
2019-03-20T16:40:23.616Z,20.40
2019-03-20T16:42:51.978Z,19.90
2019-03-20T16:45:22.589Z,19.70
2019-03-20T16:47:51.033Z,19.60
2019-03-20T16:50:19.650Z,19.50
2019-03-20T16:52:48.028Z,19.60
2019-03-20T16:55:16.783Z,19.80
2019-03-20T16:57:45.187Z,20.20
2019-03-20T17:00:24.960Z,20.60
2019-03-20T17:02:53.410Z,21.10
2019-03-20T17:05:23.130Z,21.50
2019-03-20T17:07:51.556Z,21.60
2019-03-20T17:10:32.030Z,21.90
2019-03-20T17:13:01.338Z,22.20
2019-03-20T17:15:32.884Z,22.50
2019-03-20T17:18:01.237Z,23.00
2019-03-20T17:20:29.890Z,23.50
2019-03-20T17:22:58.192Z,24.00
2019-03-20T17:25:26.663Z,24.40
2019-03-20T17:27:55.070Z,24.80
2019-03-20T17:30:32.296Z,25.20
2019-03-20T17:33:00.793Z,25.50
2019-03-20T17:35:29.157Z,25.70
2019-03-20T17:37:57.608Z,26.00
2019-03-20T17:40:27.136Z,26.20
2019-03-20T17:42:55.602Z,26.40
2019-03-20T17:45:25.359Z,26.60
2019-03-20T17:47:53.647Z,26.70
2019-03-20T17:50:32.524Z,26.80
2019-03-20T17:53:01.205Z,26.90
2019-03-20T17:55:29.704Z,27.10
2019-03-20T17:57:58.184Z,27.20
2019-03-20T18:00:44.135Z,27.40
2019-03-20T18:03:12.737Z,27.50
2019-03-20T18:05:41.152Z,27.60
2019-03-20T18:08:09.902Z,27.70
2019-03-20T18:10:38.285Z,27.90
2019-03-20T18:13:07.485Z,27.90
2019-03-20T18:15:35.894Z,28.00
2019-03-20T18:18:04.892Z,28.60
2019-03-20T18:20:33.296Z,28.20
2019-03-20T18:23:01.616Z,28.30
2019-03-20T18:25:30.007Z,28.40
2019-03-20T18:27:58.429Z,28.50
2019-03-20T18:30:28.402Z,28.80
2019-03-20T18:32:56.760Z,28.60
2019-03-20T18:35:26.265Z,28.80
2019-03-20T18:37:54.828Z,28.80
2019-03-20T18:40:24.620Z,29.40
2019-03-20T18:42:53.200Z,29.00
2019-03-20T18:45:25.642Z,29.10
2019-03-20T18:47:53.981Z,29.20
2019-03-20T18:50:25.134Z,29.30
2019-03-20T18:52:53.548Z,29.50
2019-03-20T18:55:21.957Z,29.60
2019-03-20T18:57:50.433Z,29.70
2019-03-20T19:00:24.393Z,29.80
2019-03-20T19:02:54.709Z,29.90
2019-03-20T19:05:39.280Z,30.00
2019-03-20T19:08:07.729Z,30.10
2019-03-20T19:10:36.210Z,30.20
2019-03-20T19:13:04.570Z,30.30
2019-03-20T19:15:33.063Z,30.50
2019-03-20T19:18:01.422Z,30.40
2019-03-20T19:20:29.891Z,30.50
2019-03-20T19:22:58.781Z,30.50
2019-03-20T19:25:27.166Z,30.50
2019-03-20T19:27:55.557Z,30.50
2019-03-20T19:30:25.481Z,30.50
2019-03-20T19:32:53.860Z,30.50
2019-03-20T19:35:22.284Z,30.70
2019-03-20T19:37:50.784Z,30.70
2019-03-20T19:40:20.349Z,30.80
2019-03-20T19:42:48.845Z,30.80
2019-03-20T19:45:20.238Z,31.00
2019-03-20T19:47:48.658Z,31.10
2019-03-20T19:50:21.243Z,31.10
2019-03-20T19:52:49.656Z,31.30
2019-03-20T19:55:18.596Z,31.30
2019-03-20T19:57:47.120Z,31.30
2019-03-20T20:00:26.694Z,31.50
2019-03-20T20:02:55.095Z,31.60
2019-03-20T20:05:23.501Z,31.70
2019-03-20T20:07:51.900Z,31.80
2019-03-20T20:10:20.663Z,32.00
2019-03-20T20:12:49.094Z,32.10
2019-03-20T20:15:24.967Z,32.20
2019-03-20T20:17:53.591Z,32.20
2019-03-20T20:20:24.324Z,32.30
2019-03-20T20:22:52.825Z,32.40
2019-03-20T20:25:21.236Z,32.50
2019-03-20T20:27:49.639Z,32.70
2019-03-20T20:30:19.022Z,32.80
2019-03-20T20:32:47.583Z,32.80
2019-03-20T20:35:17.152Z,32.80
2019-03-20T20:37:46.392Z,32.50
2019-03-20T20:40:23.070Z,32.90
2019-03-20T20:43:10.302Z,33.00
2019-03-20T20:45:38.689Z,33.00
2019-03-20T20:48:07.049Z,33.20
2019-03-20T20:50:35.500Z,33.30
2019-03-20T20:53:03.897Z,33.20
2019-03-20T20:55:32.290Z,33.20
2019-03-20T20:58:00.971Z,33.20
2019-03-20T21:00:29.578Z,33.40
2019-03-20T21:02:58.227Z,33.40
2019-03-20T21:05:26.854Z,33.40
2019-03-20T21:07:55.497Z,33.40
2019-03-20T21:10:27.068Z,33.50
2019-03-20T21:12:57.337Z,33.50
2019-03-20T21:15:40.306Z,33.60
2019-03-20T21:18:34.883Z,33.60
2019-03-20T21:21:03.491Z,33.70
2019-03-20T21:23:41.471Z,33.80
2019-03-20T21:26:16.052Z,33.90
2019-03-20T21:29:10.632Z,33.90
2019-03-20T21:31:58.933Z,33.90
2019-03-20T21:34:51.123Z,33.90
2019-03-20T21:37:37.834Z,34.00
2019-03-20T21:40:10.513Z,34.00
2019-03-20T21:43:10.221Z,34.10
2019-03-20T21:45:56.818Z,34.20
2019-03-20T21:48:25.319Z,34.20
2019-03-20T21:51:00.005Z,34.60
2019-03-20T21:53:49.633Z,34.80
2019-03-20T21:56:37.674Z,34.70
2019-03-20T21:59:36.782Z,34.90
2019-03-20T22:02:29.364Z,35.00
2019-03-20T22:04:57.658Z,35.20
2019-03-20T22:07:26.073Z,35.30
2019-03-20T22:10:14.274Z,35.40
2019-03-20T22:12:51.580Z,35.50
2019-03-20T22:15:35.524Z,35.70
2019-03-20T22:18:18.925Z,35.80
2019-03-20T22:20:56.385Z,35.90
2019-03-20T22:23:30.919Z,35.90
2019-03-20T22:26:28.396Z,36.00
2019-03-20T22:29:16.410Z,36.10
2019-03-20T22:31:47.997Z,36.00
2019-03-20T22:34:36.178Z,36.20
2019-03-20T22:37:04.704Z,36.30
2019-03-20T22:39:58.930Z,36.40
2019-03-20T22:42:39.466Z,36.50
2019-03-20T22:45:16.873Z,36.60
2019-03-20T22:48:05.070Z,36.70
2019-03-20T22:50:36.680Z,37.40
2019-03-20T22:53:14.130Z,37.00
2019-03-20T22:56:08.447Z,37.10
2019-03-20T22:58:42.151Z,37.20
2019-03-20T23:01:19.519Z,37.30
2019-03-20T23:04:00.165Z,37.50
2019-03-20T23:06:28.969Z,37.50
2019-03-20T23:08:57.332Z,37.70
2019-03-20T23:11:25.743Z,37.70
2019-03-20T23:13:54.158Z,37.80
2019-03-20T23:16:22.489Z,37.90
2019-03-20T23:18:50.960Z,38.00
2019-03-20T23:21:19.368Z,38.10
2019-03-20T23:23:47.782Z,38.60
2019-03-20T23:26:16.233Z,38.00
2019-03-20T23:28:44.590Z,38.00
2019-03-20T23:31:13.058Z,37.80
2019-03-20T23:33:41.480Z,37.80
2019-03-20T23:36:09.832Z,37.90
2019-03-20T23:38:38.209Z,38.00
2019-03-20T23:41:07.058Z,38.00
2019-03-20T23:43:35.545Z,38.00
2019-03-20T23:46:05.292Z,38.00
2019-03-20T23:48:48.884Z,38.10
2019-03-20T23:51:20.177Z,38.20
2019-03-20T23:53:50.675Z,38.20
2019-03-20T23:56:19.012Z,38.30
2019-03-20T23:58:47.404Z,38.50
